sensor_id;sensor_type;location;lat;lon;timestamp;P1;durP1;ratioP1;P2;durP2;ratioP2
31087;SDS011;17745;55.914;37.554;2023-03-23T00:02:25;7.12;;;3.95;;
31087;SDS011;17745;55.914;37.554;2023-03-23T00:04:55;7.35;;;4.60;;
31087;SDS011;17745;55.914;37.554;2023-03-23T00:07:25;10.95;;;4.45;;
31087;SDS011;17745;55.914;37.554;2023-03-23T00:09:53;7.12;;;3.87;;
31087;SDS011;17745;55.914;37.554;2023-03-23T00:12:23;6.25;;;4.05;;
31087;SDS011;17745;55.914;37.554;2023-03-23T00:15:00;6.00;;;3.78;;
31087;SDS011;17745;55.914;37.554;2023-03-23T00:17:29;6.93;;;4.05;;
31087;SDS011;17745;55.914;37.554;2023-03-23T00:19:58;8.98;;;4.22;;
31087;SDS011;17745;55.914;37.554;2023-03-23T00:22:29;7.00;;;4.15;;
31087;SDS011;17745;55.914;37.554;2023-03-23T00:25:05;6.30;;;3.83;;
31087;SDS011;17745;55.914;37.554;2023-03-23T00:27:34;7.43;;;4.07;;
31087;SDS011;17745;55.914;37.554;2023-03-23T00:30:03;7.18;;;4.40;;
31087;SDS011;17745;55.914;37.554;2023-03-23T00:32:32;5.82;;;3.78;;
31087;SDS011;17745;55.914;37.554;2023-03-23T00:35:01;7.37;;;4.03;;
31087;SDS011;17745;55.914;37.554;2023-03-23T00:37:30;9.80;;;4.20;;
31087;SDS011;17745;55.914;37.554;2023-03-23T00:39:59;5.65;;;3.78;;
31087;SDS011;17745;55.914;37.554;2023-03-23T00:42:28;12.23;;;4.70;;
31087;SDS011;17745;55.914;37.554;2023-03-23T00:44:57;6.55;;;3.90;;
31087;SDS011;17745;55.914;37.554;2023-03-23T00:47:47;9.40;;;4.68;;
31087;SDS011;17745;55.914;37.554;2023-03-23T00:50:16;8.35;;;3.92;;
31087;SDS011;17745;55.914;37.554;2023-03-23T00:52:44;7.47;;;4.15;;
31087;SDS011;17745;55.914;37.554;2023-03-23T00:55:13;6.03;;;4.03;;
31087;SDS011;17745;55.914;37.554;2023-03-23T00:57:41;7.07;;;4.40;;
31087;SDS011;17745;55.914;37.554;2023-03-23T01:00:09;7.12;;;4.40;;
31087;SDS011;17745;55.914;37.554;2023-03-23T01:02:37;7.25;;;4.05;;
31087;SDS011;17745;55.914;37.554;2023-03-23T01:05:08;7.78;;;3.90;;
31087;SDS011;17745;55.914;37.554;2023-03-23T01:07:37;5.30;;;3.55;;
31087;SDS011;17745;55.914;37.554;2023-03-23T01:10:07;7.55;;;4.10;;
31087;SDS011;17745;55.914;37.554;2023-03-23T01:12:38;8.32;;;4.00;;
31087;SDS011;17745;55.914;37.554;2023-03-23T01:15:06;8.02;;;4.15;;
31087;SDS011;17745;55.914;37.554;2023-03-23T01:17:34;8.38;;;4.40;;
31087;SDS011;17745;55.914;37.554;2023-03-23T01:20:02;9.85;;;4.57;;
31087;SDS011;17745;55.914;37.554;2023-03-23T01:22:33;6.37;;;4.15;;
31087;SDS011;17745;55.914;37.554;2023-03-23T01:25:01;7.10;;;4.32;;
31087;SDS011;17745;55.914;37.554;2023-03-23T01:27:29;8.55;;;4.93;;
31087;SDS011;17745;55.914;37.554;2023-03-23T01:29:57;12.48;;;3.85;;
31087;SDS011;17745;55.914;37.554;2023-03-23T01:32:25;6.90;;;4.00;;
31087;SDS011;17745;55.914;37.554;2023-03-23T01:34:56;7.82;;;3.83;;
31087;SDS011;17745;55.914;37.554;2023-03-23T01:37:24;5.62;;;3.85;;
31087;SDS011;17745;55.914;37.554;2023-03-23T01:39:55;8.27;;;3.87;;
31087;SDS011;17745;55.914;37.554;2023-03-23T01:42:24;8.32;;;3.97;;
31087;SDS011;17745;55.914;37.554;2023-03-23T01:47:56;6.57;;;3.90;;
31087;SDS011;17745;55.914;37.554;2023-03-23T01:50:29;7.62;;;3.97;;
31087;SDS011;17745;55.914;37.554;2023-03-23T01:53:02;7.00;;;3.85;;
31087;SDS011;17745;55.914;37.554;2023-03-23T01:55:36;6.45;;;4.05;;
31087;SDS011;17745;55.914;37.554;2023-03-23T01:58:07;7.05;;;4.07;;
31087;SDS011;17745;55.914;37.554;2023-03-23T02:00:36;7.70;;;4.45;;
31087;SDS011;17745;55.914;37.554;2023-03-23T02:03:06;8.93;;;4.12;;
31087;SDS011;17745;55.914;37.554;2023-03-23T02:05:39;9.15;;;5.18;;
31087;SDS011;17745;55.914;37.554;2023-03-23T02:08:09;6.72;;;4.40;;
31087;SDS011;17745;55.914;37.554;2023-03-23T02:10:41;7.60;;;4.03;;
31087;SDS011;17745;55.914;37.554;2023-03-23T02:13:13;10.13;;;4.20;;
31087;SDS011;17745;55.914;37.554;2023-03-23T02:15:44;5.87;;;3.67;;
31087;SDS011;17745;55.914;37.554;2023-03-23T02:18:34;6.35;;;4.20;;
31087;SDS011;17745;55.914;37.554;2023-03-23T02:21:16;7.03;;;4.07;;
31087;SDS011;17745;55.914;37.554;2023-03-23T02:24:04;7.32;;;3.92;;
31087;SDS011;17745;55.914;37.554;2023-03-23T02:26:53;8.88;;;4.05;;
31087;SDS011;17745;55.914;37.554;2023-03-23T02:29:43;9.03;;;4.10;;
31087;SDS011;17745;55.914;37.554;2023-03-23T02:32:28;6.35;;;3.28;;
31087;SDS011;17745;55.914;37.554;2023-03-23T02:35:14;6.87;;;4.40;;
31087;SDS011;17745;55.914;37.554;2023-03-23T02:37:46;5.95;;;4.07;;
31087;SDS011;17745;55.914;37.554;2023-03-23T02:40:18;6.70;;;3.80;;
31087;SDS011;17745;55.914;37.554;2023-03-23T02:42:49;6.75;;;4.03;;
31087;SDS011;17745;55.914;37.554;2023-03-23T02:45:22;7.97;;;4.32;;
31087;SDS011;17745;55.914;37.554;2023-03-23T02:47:54;7.50;;;4.30;;
31087;SDS011;17745;55.914;37.554;2023-03-23T02:50:25;9.15;;;4.57;;
31087;SDS011;17745;55.914;37.554;2023-03-23T02:52:55;6.32;;;3.90;;
31087;SDS011;17745;55.914;37.554;2023-03-23T02:55:25;7.62;;;3.90;;
31087;SDS011;17745;55.914;37.554;2023-03-23T02:57:59;8.70;;;4.07;;
31087;SDS011;17745;55.914;37.554;2023-03-23T03:00:28;7.53;;;4.12;;
31087;SDS011;17745;55.914;37.554;2023-03-23T03:02:58;8.85;;;4.75;;
31087;SDS011;17745;55.914;37.554;2023-03-23T03:05:33;6.68;;;4.18;;
31087;SDS011;17745;55.914;37.554;2023-03-23T03:08:10;8.73;;;4.55;;
31087;SDS011;17745;55.914;37.554;2023-03-23T03:10:46;9.45;;;4.05;;
31087;SDS011;17745;55.914;37.554;2023-03-23T03:13:20;8.82;;;4.60;;
31087;SDS011;17745;55.914;37.554;2023-03-23T03:16:05;5.90;;;4.40;;
31087;SDS011;17745;55.914;37.554;2023-03-23T03:18:39;6.75;;;4.50;;
31087;SDS011;17745;55.914;37.554;2023-03-23T03:21:16;8.57;;;5.20;;
31087;SDS011;17745;55.914;37.554;2023-03-23T03:23:51;8.98;;;4.45;;
31087;SDS011;17745;55.914;37.554;2023-03-23T03:26:28;7.82;;;4.43;;
31087;SDS011;17745;55.914;37.554;2023-03-23T03:29:01;8.52;;;4.78;;
31087;SDS011;17745;55.914;37.554;2023-03-23T03:31:33;9.40;;;4.30;;
31087;SDS011;17745;55.914;37.554;2023-03-23T03:34:05;8.68;;;4.53;;
31087;SDS011;17745;55.914;37.554;2023-03-23T03:36:36;7.37;;;4.20;;
31087;SDS011;17745;55.914;37.554;2023-03-23T03:39:10;7.93;;;4.10;;
31087;SDS011;17745;55.914;37.554;2023-03-23T03:41:42;10.45;;;5.05;;
31087;SDS011;17745;55.914;37.554;2023-03-23T03:44:43;7.90;;;4.78;;
31087;SDS011;17745;55.914;37.554;2023-03-23T03:47:25;6.70;;;4.62;;
31087;SDS011;17745;55.914;37.554;2023-03-23T03:49:54;9.18;;;4.80;;
31087;SDS011;17745;55.914;37.554;2023-03-23T03:52:25;7.87;;;4.78;;
31087;SDS011;17745;55.914;37.554;2023-03-23T03:54:54;8.77;;;5.07;;
31087;SDS011;17745;55.914;37.554;2023-03-23T03:57:24;8.48;;;4.62;;
31087;SDS011;17745;55.914;37.554;2023-03-23T04:00:38;11.38;;;5.12;;
31087;SDS011;17745;55.914;37.554;2023-03-23T04:03:07;9.73;;;5.12;;
31087;SDS011;17745;55.914;37.554;2023-03-23T04:05:37;8.25;;;4.78;;
31087;SDS011;17745;55.914;37.554;2023-03-23T04:08:15;9.05;;;4.75;;
31087;SDS011;17745;55.914;37.554;2023-03-23T04:10:50;7.90;;;5.12;;
31087;SDS011;17745;55.914;37.554;2023-03-23T04:13:32;9.15;;;5.20;;
31087;SDS011;17745;55.914;37.554;2023-03-23T04:16:00;8.18;;;4.70;;
31087;SDS011;17745;55.914;37.554;2023-03-23T04:18:31;9.20;;;5.50;;
31087;SDS011;17745;55.914;37.554;2023-03-23T04:21:04;8.20;;;5.22;;
31087;SDS011;17745;55.914;37.554;2023-03-23T04:23:36;8.82;;;5.57;;
31087;SDS011;17745;55.914;37.554;2023-03-23T04:26:06;7.97;;;5.53;;
31087;SDS011;17745;55.914;37.554;2023-03-23T04:28:42;6.90;;;4.72;;
31087;SDS011;17745;55.914;37.554;2023-03-23T04:31:13;10.65;;;5.60;;
31087;SDS011;17745;55.914;37.554;2023-03-23T04:33:49;10.00;;;4.37;;
31087;SDS011;17745;55.914;37.554;2023-03-23T04:36:19;10.98;;;6.03;;
31087;SDS011;17745;55.914;37.554;2023-03-23T04:38:55;7.43;;;4.97;;
31087;SDS011;17745;55.914;37.554;2023-03-23T04:41:29;11.43;;;5.53;;
31087;SDS011;17745;55.914;37.554;2023-03-23T04:43:57;14.23;;;6.15;;
31087;SDS011;17745;55.914;37.554;2023-03-23T04:46:32;9.43;;;5.65;;
31087;SDS011;17745;55.914;37.554;2023-03-23T04:49:05;9.20;;;5.90;;
31087;SDS011;17745;55.914;37.554;2023-03-23T04:51:40;12.75;;;5.90;;
31087;SDS011;17745;55.914;37.554;2023-03-23T04:54:27;9.05;;;5.65;;
31087;SDS011;17745;55.914;37.554;2023-03-23T04:57:21;10.48;;;6.28;;
31087;SDS011;17745;55.914;37.554;2023-03-23T04:59:51;13.30;;;6.53;;
31087;SDS011;17745;55.914;37.554;2023-03-23T05:02:21;8.85;;;5.53;;
31087;SDS011;17745;55.914;37.554;2023-03-23T05:04:51;10.52;;;5.87;;
31087;SDS011;17745;55.914;37.554;2023-03-23T05:07:20;13.27;;;6.22;;
31087;SDS011;17745;55.914;37.554;2023-03-23T05:09:52;9.52;;;5.78;;
31087;SDS011;17745;55.914;37.554;2023-03-23T05:12:26;14.95;;;6.40;;
31087;SDS011;17745;55.914;37.554;2023-03-23T05:15:22;11.77;;;6.32;;
31087;SDS011;17745;55.914;37.554;2023-03-23T05:17:50;9.40;;;5.72;;
31087;SDS011;17745;55.914;37.554;2023-03-23T05:20:18;15.90;;;6.45;;
31087;SDS011;17745;55.914;37.554;2023-03-23T05:22:47;13.68;;;7.20;;
31087;SDS011;17745;55.914;37.554;2023-03-23T05:25:23;10.82;;;6.43;;
31087;SDS011;17745;55.914;37.554;2023-03-23T05:27:52;10.30;;;6.10;;
31087;SDS011;17745;55.914;37.554;2023-03-23T05:30:20;11.82;;;6.43;;
31087;SDS011;17745;55.914;37.554;2023-03-23T05:32:56;13.75;;;6.70;;
31087;SDS011;17745;55.914;37.554;2023-03-23T05:35:30;15.40;;;7.87;;
31087;SDS011;17745;55.914;37.554;2023-03-23T05:37:59;11.63;;;6.68;;
31087;SDS011;17745;55.914;37.554;2023-03-23T05:40:34;12.68;;;6.87;;
31087;SDS011;17745;55.914;37.554;2023-03-23T05:43:02;16.77;;;6.85;;
31087;SDS011;17745;55.914;37.554;2023-03-23T05:45:31;10.77;;;7.12;;
31087;SDS011;17745;55.914;37.554;2023-03-23T05:48:05;14.45;;;7.65;;
31087;SDS011;17745;55.914;37.554;2023-03-23T05:50:38;12.37;;;8.07;;
31087;SDS011;17745;55.914;37.554;2023-03-23T05:53:07;12.70;;;7.30;;
31087;SDS011;17745;55.914;37.554;2023-03-23T05:55:39;12.43;;;7.20;;
31087;SDS011;17745;55.914;37.554;2023-03-23T05:58:10;12.77;;;7.00;;
31087;SDS011;17745;55.914;37.554;2023-03-23T06:00:44;16.52;;;7.55;;
31087;SDS011;17745;55.914;37.554;2023-03-23T06:03:17;16.00;;;8.50;;
31087;SDS011;17745;55.914;37.554;2023-03-23T06:05:45;14.30;;;8.05;;
31087;SDS011;17745;55.914;37.554;2023-03-23T06:08:13;15.25;;;7.57;;
31087;SDS011;17745;55.914;37.554;2023-03-23T06:10:43;18.62;;;8.10;;
31087;SDS011;17745;55.914;37.554;2023-03-23T06:13:22;14.00;;;7.57;;
31087;SDS011;17745;55.914;37.554;2023-03-23T06:15:54;11.70;;;7.12;;
31087;SDS011;17745;55.914;37.554;2023-03-23T06:18:24;15.98;;;8.38;;
31087;SDS011;17745;55.914;37.554;2023-03-23T06:21:04;15.15;;;7.87;;
31087;SDS011;17745;55.914;37.554;2023-03-23T06:23:36;13.18;;;7.97;;
31087;SDS011;17745;55.914;37.554;2023-03-23T06:26:08;18.02;;;8.60;;
31087;SDS011;17745;55.914;37.554;2023-03-23T06:28:38;14.98;;;8.48;;
31087;SDS011;17745;55.914;37.554;2023-03-23T06:31:09;17.40;;;8.60;;
31087;SDS011;17745;55.914;37.554;2023-03-23T06:33:40;16.73;;;7.87;;
31087;SDS011;17745;55.914;37.554;2023-03-23T06:36:15;16.10;;;8.55;;
31087;SDS011;17745;55.914;37.554;2023-03-23T06:38:45;14.18;;;8.68;;
31087;SDS011;17745;55.914;37.554;2023-03-23T06:41:17;15.38;;;7.90;;
31087;SDS011;17745;55.914;37.554;2023-03-23T06:43:47;18.48;;;8.45;;
31087;SDS011;17745;55.914;37.554;2023-03-23T06:46:26;17.52;;;8.95;;
31087;SDS011;17745;55.914;37.554;2023-03-23T06:48:56;13.25;;;7.78;;
31087;SDS011;17745;55.914;37.554;2023-03-23T06:51:26;13.65;;;8.18;;
31087;SDS011;17745;55.914;37.554;2023-03-23T06:53:55;12.60;;;8.30;;
31087;SDS011;17745;55.914;37.554;2023-03-23T06:56:34;19.80;;;8.02;;
31087;SDS011;17745;55.914;37.554;2023-03-23T06:59:04;19.70;;;8.43;;
31087;SDS011;17745;55.914;37.554;2023-03-23T07:01:34;15.43;;;6.97;;
31087;SDS011;17745;55.914;37.554;2023-03-23T07:04:04;15.10;;;8.30;;
31087;SDS011;17745;55.914;37.554;2023-03-23T07:06:42;14.13;;;8.65;;
31087;SDS011;17745;55.914;37.554;2023-03-23T07:09:13;16.87;;;8.80;;
31087;SDS011;17745;55.914;37.554;2023-03-23T07:11:49;13.50;;;7.93;;
31087;SDS011;17745;55.914;37.554;2023-03-23T07:14:26;13.35;;;7.28;;
31087;SDS011;17745;55.914;37.554;2023-03-23T07:17:08;12.27;;;7.78;;
31087;SDS011;17745;55.914;37.554;2023-03-23T07:22:24;13.80;;;8.55;;
31087;SDS011;17745;55.914;37.554;2023-03-23T07:28:30;12.85;;;8.18;;
31087;SDS011;17745;55.914;37.554;2023-03-23T07:33:32;22.52;;;8.30;;
31087;SDS011;17745;55.914;37.554;2023-03-23T07:36:18;14.25;;;8.07;;
31087;SDS011;17745;55.914;37.554;2023-03-23T07:39:12;13.38;;;7.35;;
31087;SDS011;17745;55.914;37.554;2023-03-23T07:41:40;19.45;;;8.52;;
31087;SDS011;17745;55.914;37.554;2023-03-23T07:44:17;19.83;;;8.02;;
31087;SDS011;17745;55.914;37.554;2023-03-23T07:47:13;13.43;;;7.55;;
31087;SDS011;17745;55.914;37.554;2023-03-23T07:50:15;17.20;;;8.18;;
31087;SDS011;17745;55.914;37.554;2023-03-23T07:53:19;16.30;;;7.78;;
31087;SDS011;17745;55.914;37.554;2023-03-23T07:55:55;13.88;;;7.87;;
31087;SDS011;17745;55.914;37.554;2023-03-23T07:59:25;12.75;;;6.37;;
31087;SDS011;17745;55.914;37.554;2023-03-23T08:02:29;12.95;;;8.40;;
31087;SDS011;17745;55.914;37.554;2023-03-23T08:05:57;13.48;;;7.90;;
31087;SDS011;17745;55.914;37.554;2023-03-23T08:08:35;13.85;;;6.55;;
31087;SDS011;17745;55.914;37.554;2023-03-23T08:11:24;10.43;;;6.78;;
31087;SDS011;17745;55.914;37.554;2023-03-23T08:14:43;12.75;;;7.28;;
31087;SDS011;17745;55.914;37.554;2023-03-23T08:17:24;13.52;;;8.65;;
31087;SDS011;17745;55.914;37.554;2023-03-23T08:20:05;15.98;;;8.35;;
31087;SDS011;17745;55.914;37.554;2023-03-23T08:22:57;17.33;;;7.68;;
31087;SDS011;17745;55.914;37.554;2023-03-23T08:25:39;11.52;;;7.70;;
31087;SDS011;17745;55.914;37.554;2023-03-23T08:28:42;15.52;;;7.55;;
31087;SDS011;17745;55.914;37.554;2023-03-23T08:31:25;16.02;;;8.70;;
31087;SDS011;17745;55.914;37.554;2023-03-23T08:33:56;14.25;;;8.00;;
31087;SDS011;17745;55.914;37.554;2023-03-23T08:36:29;12.27;;;6.93;;
31087;SDS011;17745;55.914;37.554;2023-03-23T08:39:01;14.35;;;8.20;;
31087;SDS011;17745;55.914;37.554;2023-03-23T08:41:32;15.88;;;7.50;;
31087;SDS011;17745;55.914;37.554;2023-03-23T08:44:02;12.57;;;7.53;;
31087;SDS011;17745;55.914;37.554;2023-03-23T08:46:46;12.85;;;7.53;;
31087;SDS011;17745;55.914;37.554;2023-03-23T08:49:14;17.67;;;8.25;;
31087;SDS011;17745;55.914;37.554;2023-03-23T08:52:26;12.68;;;7.70;;
31087;SDS011;17745;55.914;37.554;2023-03-23T08:54:55;12.60;;;7.55;;
31087;SDS011;17745;55.914;37.554;2023-03-23T08:57:37;15.18;;;7.03;;
31087;SDS011;17745;55.914;37.554;2023-03-23T09:00:11;11.50;;;7.00;;
31087;SDS011;17745;55.914;37.554;2023-03-23T09:02:59;11.88;;;6.60;;
31087;SDS011;17745;55.914;37.554;2023-03-23T09:05:28;11.73;;;7.10;;
31087;SDS011;17745;55.914;37.554;2023-03-23T09:07:58;14.75;;;7.10;;
31087;SDS011;17745;55.914;37.554;2023-03-23T09:10:34;13.20;;;6.62;;
31087;SDS011;17745;55.914;37.554;2023-03-23T09:13:14;11.88;;;6.62;;
31087;SDS011;17745;55.914;37.554;2023-03-23T09:15:48;10.43;;;6.80;;
31087;SDS011;17745;55.914;37.554;2023-03-23T09:21:11;11.80;;;7.35;;
31087;SDS011;17745;55.914;37.554;2023-03-23T09:23:47;10.32;;;7.00;;
31087;SDS011;17745;55.914;37.554;2023-03-23T09:40:47;14.95;;;7.00;;
31087;SDS011;17745;55.914;37.554;2023-03-23T09:43:31;16.12;;;7.40;;
31087;SDS011;17745;55.914;37.554;2023-03-23T09:46:13;10.15;;;6.35;;
31087;SDS011;17745;55.914;37.554;2023-03-23T09:48:56;13.62;;;7.18;;
31087;SDS011;17745;55.914;37.554;2023-03-23T09:51:39;13.70;;;6.90;;
31087;SDS011;17745;55.914;37.554;2023-03-23T09:54:21;10.45;;;6.55;;
31087;SDS011;17745;55.914;37.554;2023-03-23T09:56:57;10.20;;;6.50;;
31087;SDS011;17745;55.914;37.554;2023-03-23T09:59:31;12.32;;;6.68;;
31087;SDS011;17745;55.914;37.554;2023-03-23T10:02:08;13.25;;;6.47;;
31087;SDS011;17745;55.914;37.554;2023-03-23T10:04:42;9.80;;;5.55;;
31087;SDS011;17745;55.914;37.554;2023-03-23T10:07:13;11.48;;;6.10;;
31087;SDS011;17745;55.914;37.554;2023-03-23T10:09:46;15.23;;;6.57;;
31087;SDS011;17745;55.914;37.554;2023-03-23T10:17:00;10.73;;;6.60;;
31087;SDS011;17745;55.914;37.554;2023-03-23T10:22:52;11.70;;;6.15;;
31087;SDS011;17745;55.914;37.554;2023-03-23T10:26:01;13.60;;;6.47;;
31087;SDS011;17745;55.914;37.554;2023-03-23T10:28:41;10.48;;;6.22;;
31087;SDS011;17745;55.914;37.554;2023-03-23T10:31:13;13.93;;;5.80;;
31087;SDS011;17745;55.914;37.554;2023-03-23T10:33:50;11.05;;;5.97;;
31087;SDS011;17745;55.914;37.554;2023-03-23T10:36:34;11.93;;;6.40;;
31087;SDS011;17745;55.914;37.554;2023-03-23T10:39:06;8.57;;;5.25;;
31087;SDS011;17745;55.914;37.554;2023-03-23T10:41:43;8.38;;;5.10;;
31087;SDS011;17745;55.914;37.554;2023-03-23T10:44:17;11.93;;;6.07;;
31087;SDS011;17745;55.914;37.554;2023-03-23T10:46:58;10.07;;;5.40;;
31087;SDS011;17745;55.914;37.554;2023-03-23T10:49:33;11.88;;;5.07;;
31087;SDS011;17745;55.914;37.554;2023-03-23T10:52:10;16.23;;;5.37;;
31087;SDS011;17745;55.914;37.554;2023-03-23T10:54:50;13.93;;;5.65;;
31087;SDS011;17745;55.914;37.554;2023-03-23T10:57:26;9.77;;;5.45;;
31087;SDS011;17745;55.914;37.554;2023-03-23T11:00:04;8.73;;;5.43;;
31087;SDS011;17745;55.914;37.554;2023-03-23T11:02:42;18.17;;;5.03;;
31087;SDS011;17745;55.914;37.554;2023-03-23T11:05:31;9.10;;;5.53;;
31087;SDS011;17745;55.914;37.554;2023-03-23T11:08:21;11.80;;;5.00;;
31087;SDS011;17745;55.914;37.554;2023-03-23T11:11:14;12.00;;;5.57;;
31087;SDS011;17745;55.914;37.554;2023-03-23T11:13:56;12.00;;;5.75;;
31087;SDS011;17745;55.914;37.554;2023-03-23T11:16:30;15.55;;;4.93;;
31087;SDS011;17745;55.914;37.554;2023-03-23T11:19:12;10.13;;;4.68;;
31087;SDS011;17745;55.914;37.554;2023-03-23T11:21:45;11.02;;;5.25;;
31087;SDS011;17745;55.914;37.554;2023-03-23T11:24:31;13.48;;;5.22;;
31087;SDS011;17745;55.914;37.554;2023-03-23T11:27:30;8.60;;;5.35;;
31087;SDS011;17745;55.914;37.554;2023-03-23T11:30:08;13.32;;;6.20;;
31087;SDS011;17745;55.914;37.554;2023-03-23T11:32:44;11.93;;;5.43;;
31087;SDS011;17745;55.914;37.554;2023-03-23T11:35:22;9.40;;;4.87;;
31087;SDS011;17745;55.914;37.554;2023-03-23T11:37:56;10.27;;;4.75;;
31087;SDS011;17745;55.914;37.554;2023-03-23T11:40:42;10.52;;;4.28;;
31087;SDS011;17745;55.914;37.554;2023-03-23T11:43:19;6.55;;;3.90;;
31087;SDS011;17745;55.914;37.554;2023-03-23T11:45:54;9.90;;;4.00;;
31087;SDS011;17745;55.914;37.554;2023-03-23T11:48:59;7.72;;;4.45;;
31087;SDS011;17745;55.914;37.554;2023-03-23T11:51:38;8.43;;;4.37;;
31087;SDS011;17745;55.914;37.554;2023-03-23T11:54:13;8.13;;;4.28;;
31087;SDS011;17745;55.914;37.554;2023-03-23T11:56:57;14.82;;;4.37;;
31087;SDS011;17745;55.914;37.554;2023-03-23T11:59:33;9.68;;;4.70;;
31087;SDS011;17745;55.914;37.554;2023-03-23T12:02:38;12.02;;;4.80;;
31087;SDS011;17745;55.914;37.554;2023-03-23T12:05:54;9.02;;;4.28;;
31087;SDS011;17745;55.914;37.554;2023-03-23T12:08:49;10.45;;;4.90;;
31087;SDS011;17745;55.914;37.554;2023-03-23T12:11:36;10.02;;;4.95;;
31087;SDS011;17745;55.914;37.554;2023-03-23T12:14:15;12.93;;;4.68;;
31087;SDS011;17745;55.914;37.554;2023-03-23T12:16:53;13.82;;;5.35;;
31087;SDS011;17745;55.914;37.554;2023-03-23T12:19:37;9.82;;;5.03;;
31087;SDS011;17745;55.914;37.554;2023-03-23T12:22:24;17.17;;;5.35;;
31087;SDS011;17745;55.914;37.554;2023-03-23T12:25:30;9.02;;;5.45;;
31087;SDS011;17745;55.914;37.554;2023-03-23T12:28:29;13.62;;;5.37;;
31087;SDS011;17745;55.914;37.554;2023-03-23T12:31:11;11.25;;;5.43;;
31087;SDS011;17745;55.914;37.554;2023-03-23T12:34:15;11.12;;;5.20;;
31087;SDS011;17745;55.914;37.554;2023-03-23T12:37:28;14.95;;;4.75;;
31087;SDS011;17745;55.914;37.554;2023-03-23T12:43:28;9.45;;;3.78;;
31087;SDS011;17745;55.914;37.554;2023-03-23T12:52:38;9.57;;;3.58;;
31087;SDS011;17745;55.914;37.554;2023-03-23T12:55:23;12.65;;;5.28;;
31087;SDS011;17745;55.914;37.554;2023-03-23T12:58:05;9.38;;;5.20;;
31087;SDS011;17745;55.914;37.554;2023-03-23T13:00:53;13.40;;;4.80;;
31087;SDS011;17745;55.914;37.554;2023-03-23T13:06:00;8.85;;;3.85;;
31087;SDS011;17745;55.914;37.554;2023-03-23T13:08:40;6.85;;;3.95;;
31087;SDS011;17745;55.914;37.554;2023-03-23T13:11:29;8.27;;;4.53;;
31087;SDS011;17745;55.914;37.554;2023-03-23T13:14:16;7.43;;;3.40;;
31087;SDS011;17745;55.914;37.554;2023-03-23T13:17:24;11.73;;;4.43;;
31087;SDS011;17745;55.914;37.554;2023-03-23T13:23:38;13.52;;;4.75;;
31087;SDS011;17745;55.914;37.554;2023-03-23T13:26:18;8.65;;;3.90;;
31087;SDS011;17745;55.914;37.554;2023-03-23T13:29:01;8.05;;;4.15;;
31087;SDS011;17745;55.914;37.554;2023-03-23T13:31:43;7.78;;;4.18;;
31087;SDS011;17745;55.914;37.554;2023-03-23T13:34:23;10.98;;;3.83;;
31087;SDS011;17745;55.914;37.554;2023-03-23T13:36:58;6.62;;;3.70;;
31087;SDS011;17745;55.914;37.554;2023-03-23T13:39:50;8.45;;;4.18;;
31087;SDS011;17745;55.914;37.554;2023-03-23T13:42:25;8.30;;;4.25;;
31087;SDS011;17745;55.914;37.554;2023-03-23T13:45:08;10.75;;;4.50;;
31087;SDS011;17745;55.914;37.554;2023-03-23T13:48:02;8.93;;;4.62;;
31087;SDS011;17745;55.914;37.554;2023-03-23T13:50:49;9.80;;;4.10;;
31087;SDS011;17745;55.914;37.554;2023-03-23T13:53:26;12.40;;;4.50;;
31087;SDS011;17745;55.914;37.554;2023-03-23T13:56:19;12.05;;;4.78;;
31087;SDS011;17745;55.914;37.554;2023-03-23T13:59:04;10.85;;;4.97;;
31087;SDS011;17745;55.914;37.554;2023-03-23T14:01:50;8.95;;;4.82;;
31087;SDS011;17745;55.914;37.554;2023-03-23T14:04:43;10.70;;;4.75;;
31087;SDS011;17745;55.914;37.554;2023-03-23T14:07:20;8.15;;;4.60;;
31087;SDS011;17745;55.914;37.554;2023-03-23T14:10:04;17.05;;;4.87;;
31087;SDS011;17745;55.914;37.554;2023-03-23T14:12:53;9.73;;;4.95;;
31087;SDS011;17745;55.914;37.554;2023-03-23T14:15:28;9.15;;;4.95;;
31087;SDS011;17745;55.914;37.554;2023-03-23T14:17:59;11.43;;;5.05;;
31087;SDS011;17745;55.914;37.554;2023-03-23T14:20:34;9.27;;;4.00;;
31087;SDS011;17745;55.914;37.554;2023-03-23T14:23:14;8.57;;;4.82;;
31087;SDS011;17745;55.914;37.554;2023-03-23T14:26:01;11.77;;;5.07;;
31087;SDS011;17745;55.914;37.554;2023-03-23T14:28:55;15.43;;;5.68;;
31087;SDS011;17745;55.914;37.554;2023-03-23T14:31:30;11.12;;;4.72;;
31087;SDS011;17745;55.914;37.554;2023-03-23T14:34:14;9.73;;;4.53;;
31087;SDS011;17745;55.914;37.554;2023-03-23T14:36:58;11.48;;;4.82;;
31087;SDS011;17745;55.914;37.554;2023-03-23T14:39:38;7.55;;;4.53;;
31087;SDS011;17745;55.914;37.554;2023-03-23T14:42:11;7.28;;;4.70;;
31087;SDS011;17745;55.914;37.554;2023-03-23T14:44:54;10.70;;;4.85;;
31087;SDS011;17745;55.914;37.554;2023-03-23T14:47:33;13.07;;;4.95;;
31087;SDS011;17745;55.914;37.554;2023-03-23T14:50:21;10.10;;;4.78;;
31087;SDS011;17745;55.914;37.554;2023-03-23T14:52:59;12.35;;;4.75;;
31087;SDS011;17745;55.914;37.554;2023-03-23T14:55:51;8.60;;;5.12;;
31087;SDS011;17745;55.914;37.554;2023-03-23T14:58:35;7.90;;;5.20;;
31087;SDS011;17745;55.914;37.554;2023-03-23T15:01:23;9.57;;;4.55;;
31087;SDS011;17745;55.914;37.554;2023-03-23T15:04:25;9.25;;;4.90;;
31087;SDS011;17745;55.914;37.554;2023-03-23T15:07:02;10.50;;;4.65;;
31087;SDS011;17745;55.914;37.554;2023-03-23T15:09:49;10.10;;;5.30;;
31087;SDS011;17745;55.914;37.554;2023-03-23T15:18:14;13.07;;;5.53;;
31087;SDS011;17745;55.914;37.554;2023-03-23T15:21:18;12.07;;;5.12;;
31087;SDS011;17745;55.914;37.554;2023-03-23T15:24:18;12.73;;;5.05;;
31087;SDS011;17745;55.914;37.554;2023-03-23T15:27:11;8.98;;;5.07;;
31087;SDS011;17745;55.914;37.554;2023-03-23T15:30:15;9.75;;;5.60;;
31087;SDS011;17745;55.914;37.554;2023-03-23T15:33:18;8.07;;;5.10;;
31087;SDS011;17745;55.914;37.554;2023-03-23T15:35:56;10.73;;;5.32;;
31087;SDS011;17745;55.914;37.554;2023-03-23T15:38:29;16.55;;;5.25;;
31087;SDS011;17745;55.914;37.554;2023-03-23T15:41:19;8.57;;;4.97;;
31087;SDS011;17745;55.914;37.554;2023-03-23T15:44:20;11.20;;;5.45;;
31087;SDS011;17745;55.914;37.554;2023-03-23T15:47:14;10.50;;;4.07;;
31087;SDS011;17745;55.914;37.554;2023-03-23T15:50:17;12.02;;;5.25;;
31087;SDS011;17745;55.914;37.554;2023-03-23T15:53:26;9.30;;;5.47;;
31087;SDS011;17745;55.914;37.554;2023-03-23T15:59:33;8.48;;;4.90;;
31087;SDS011;17745;55.914;37.554;2023-03-23T16:02:59;13.57;;;5.07;;
31087;SDS011;17745;55.914;37.554;2023-03-23T16:10:19;16.23;;;5.82;;
31087;SDS011;17745;55.914;37.554;2023-03-23T16:22:24;10.02;;;4.85;;
31087;SDS011;17745;55.914;37.554;2023-03-23T16:31:16;12.32;;;5.28;;
31087;SDS011;17745;55.914;37.554;2023-03-23T16:34:10;9.68;;;5.37;;
31087;SDS011;17745;55.914;37.554;2023-03-23T16:36:51;12.15;;;4.65;;
31087;SDS011;17745;55.914;37.554;2023-03-23T16:39:54;9.13;;;5.22;;
31087;SDS011;17745;55.914;37.554;2023-03-23T16:43:01;10.23;;;5.87;;
31087;SDS011;17745;55.914;37.554;2023-03-23T16:45:55;10.25;;;5.40;;
31087;SDS011;17745;55.914;37.554;2023-03-23T16:56:40;10.27;;;5.68;;
31087;SDS011;17745;55.914;37.554;2023-03-23T16:59:46;11.35;;;5.05;;
31087;SDS011;17745;55.914;37.554;2023-03-23T17:03:00;13.57;;;5.25;;
31087;SDS011;17745;55.914;37.554;2023-03-23T17:06:24;9.80;;;5.32;;
31087;SDS011;17745;55.914;37.554;2023-03-23T17:09:42;12.68;;;6.12;;
31087;SDS011;17745;55.914;37.554;2023-03-23T17:34:58;12.07;;;6.30;;